createdAt,value
2022-08-03T00:00:30.890Z,20.04
2022-08-03T00:01:32.554Z,20.10
2022-08-03T00:02:30.562Z,19.98
2022-08-03T00:03:29.843Z,20.02
2022-08-03T00:04:34.110Z,20.02
2022-08-03T00:05:29.790Z,19.89
2022-08-03T00:06:33.772Z,19.97
2022-08-03T00:07:30.761Z,19.94
2022-08-03T00:08:29.778Z,19.94
2022-08-03T00:09:35.502Z,19.90
2022-08-03T00:10:30.795Z,20.00
2022-08-03T00:11:29.709Z,20.00
2022-08-03T00:12:32.565Z,20.00
2022-08-03T00:13:30.554Z,19.92
2022-08-03T00:14:29.677Z,19.98
2022-08-03T00:15:29.668Z,19.95
2022-08-03T00:16:29.688Z,19.94
2022-08-03T00:17:30.092Z,19.89
2022-08-03T00:18:31.561Z,19.95
2022-08-03T00:19:36.560Z,19.90
2022-08-03T00:20:50.636Z,19.94
2022-08-03T00:21:30.563Z,20.01
2022-08-03T00:22:32.551Z,19.86
2022-08-03T00:23:50.841Z,19.92
2022-08-03T00:24:30.582Z,19.92
2022-08-03T00:25:30.068Z,19.89
2022-08-03T00:26:29.573Z,19.89
2022-08-03T00:27:30.055Z,19.95
2022-08-03T00:28:30.054Z,19.87
2022-08-03T00:29:30.088Z,19.95
2022-08-03T00:30:30.892Z,19.90
2022-08-03T00:31:47.041Z,19.98
2022-08-03T00:32:30.513Z,19.89
2022-08-03T00:33:30.081Z,19.90
2022-08-03T00:34:57.865Z,19.92
2022-08-03T00:35:37.084Z,19.97
2022-08-03T00:36:31.066Z,19.89
2022-08-03T00:37:41.459Z,19.92
2022-08-03T00:38:37.056Z,19.87
2022-08-03T00:39:30.076Z,20.00
2022-08-03T00:40:30.054Z,19.97
2022-08-03T00:41:29.387Z,19.87
2022-08-03T00:42:30.063Z,19.92
2022-08-03T00:43:29.385Z,19.90
2022-08-03T00:44:30.056Z,19.92
2022-08-03T00:45:30.076Z,19.97
2022-08-03T00:46:29.326Z,19.97
2022-08-03T00:47:32.064Z,20.01
2022-08-03T00:48:33.603Z,20.02
2022-08-03T00:49:29.379Z,20.07
2022-08-03T00:50:30.093Z,20.02
2022-08-03T00:51:29.273Z,19.92
2022-08-03T00:52:32.056Z,19.94
2022-08-03T00:53:30.086Z,19.98
2022-08-03T00:54:30.065Z,20.00
2022-08-03T00:55:29.242Z,19.95
2022-08-03T00:56:30.108Z,20.00
2022-08-03T00:57:32.065Z,19.90
2022-08-03T00:58:36.065Z,19.95
2022-08-03T00:59:31.100Z,19.82
2022-08-03T01:00:30.057Z,19.94
2022-08-03T01:01:32.551Z,19.98
2022-08-03T01:02:30.058Z,19.89
2022-08-03T01:03:30.067Z,19.90
2022-08-03T01:04:30.067Z,19.83
2022-08-03T01:05:31.112Z,19.89
2022-08-03T01:06:32.065Z,20.00
2022-08-03T01:07:29.087Z,19.94
2022-08-03T01:08:30.065Z,19.94
2022-08-03T01:09:29.068Z,19.92
2022-08-03T01:10:31.683Z,19.95
2022-08-03T01:11:31.565Z,19.90
2022-08-03T01:12:35.563Z,19.95
2022-08-03T01:14:02.023Z,19.97
2022-08-03T01:14:30.021Z,19.95
2022-08-03T01:15:29.038Z,19.92
2022-08-03T01:16:36.678Z,19.97
2022-08-03T01:17:29.982Z,19.92
2022-08-03T01:18:35.559Z,19.92
2022-08-03T01:19:35.569Z,19.97
2022-08-03T01:20:31.571Z,19.85
2022-08-03T01:21:32.103Z,19.90
2022-08-03T01:22:31.575Z,19.94
2022-08-03T01:23:29.197Z,19.94
2022-08-03T01:24:31.577Z,19.83
2022-08-03T01:25:28.879Z,19.89
2022-08-03T01:26:30.602Z,19.89
2022-08-03T01:27:30.601Z,19.94
2022-08-03T01:28:31.574Z,19.94
2022-08-03T01:29:31.574Z,20.04
2022-08-03T01:30:35.577Z,19.98
2022-08-03T01:31:32.097Z,20.10
2022-08-03T01:32:58.669Z,20.07
2022-08-03T01:33:30.570Z,20.10
2022-08-03T01:34:31.578Z,20.13
2022-08-03T01:35:28.817Z,20.22
2022-08-03T01:36:31.573Z,20.19
2022-08-03T01:37:35.573Z,20.22
2022-08-03T01:38:31.580Z,20.19
2022-08-03T01:39:29.580Z,20.34
2022-08-03T01:40:31.587Z,20.30
2022-08-03T01:41:30.788Z,20.31
2022-08-03T01:42:31.575Z,20.35
2022-08-03T01:44:27.043Z,20.37
2022-08-03T01:44:32.580Z,20.38
2022-08-03T01:45:43.570Z,20.48
2022-08-03T01:46:31.573Z,20.40
2022-08-03T01:47:30.613Z,20.51
2022-08-03T01:48:29.567Z,20.44
2022-08-03T01:49:31.623Z,20.53
2022-08-03T01:50:35.595Z,20.54
2022-08-03T01:52:02.900Z,20.44
2022-08-03T01:52:32.075Z,20.48
2022-08-03T01:53:33.608Z,20.53
2022-08-03T01:54:28.567Z,20.42
2022-08-03T01:55:31.085Z,20.38
2022-08-03T01:56:49.534Z,20.37
2022-08-03T01:57:31.081Z,20.27
2022-08-03T01:58:31.073Z,20.31
2022-08-03T01:59:30.096Z,20.31
2022-08-03T02:00:31.080Z,20.16
2022-08-03T02:02:27.541Z,20.16
2022-08-03T02:02:32.857Z,20.20
2022-08-03T02:03:31.086Z,20.17
2022-08-03T02:04:31.085Z,20.16
2022-08-03T02:05:31.094Z,20.08
2022-08-03T02:06:59.926Z,20.10
2022-08-03T02:07:29.396Z,20.04
2022-08-03T02:08:29.991Z,20.13
2022-08-03T02:09:35.072Z,20.10
2022-08-03T02:10:35.252Z,20.08
2022-08-03T02:11:30.080Z,19.98
2022-08-03T02:12:28.356Z,20.02
2022-08-03T02:13:28.342Z,19.95
2022-08-03T02:14:31.070Z,20.00
2022-08-03T02:15:28.357Z,20.04
2022-08-03T02:16:31.076Z,19.98
2022-08-03T02:17:39.779Z,20.02
2022-08-03T02:18:29.267Z,19.92
2022-08-03T02:19:31.395Z,19.87
2022-08-03T02:20:30.168Z,19.97
2022-08-03T02:21:57.090Z,19.86
2022-08-03T02:22:32.084Z,19.85
2022-08-03T02:23:28.221Z,19.82
2022-08-03T02:24:28.209Z,19.83
2022-08-03T02:25:28.201Z,19.78
2022-08-03T02:26:30.099Z,19.83
2022-08-03T02:27:28.176Z,19.75
2022-08-03T02:28:31.082Z,19.85
2022-08-03T02:29:39.299Z,19.78
2022-08-03T02:30:30.073Z,19.83
2022-08-03T02:31:29.088Z,19.82
2022-08-03T02:32:31.083Z,19.78
2022-08-03T02:33:35.080Z,19.83
2022-08-03T02:34:31.077Z,19.76
2022-08-03T02:35:28.106Z,19.75
2022-08-03T02:36:28.071Z,19.80
2022-08-03T02:37:34.578Z,19.83
2022-08-03T02:38:28.104Z,19.76
2022-08-03T02:39:28.067Z,19.83
2022-08-03T02:40:28.034Z,19.68
2022-08-03T02:41:28.021Z,19.70
2022-08-03T02:42:28.021Z,19.75
2022-08-03T02:43:28.111Z,19.71
2022-08-03T02:44:35.584Z,19.68
2022-08-03T02:45:27.976Z,19.70
2022-08-03T02:46:27.964Z,19.70
2022-08-03T02:47:27.961Z,19.79
2022-08-03T02:48:27.948Z,19.68
2022-08-03T02:49:41.061Z,19.68
2022-08-03T02:50:35.603Z,19.60
2022-08-03T02:51:27.928Z,19.68
2022-08-03T02:52:27.900Z,19.60
2022-08-03T02:53:30.578Z,19.60
2022-08-03T02:54:27.931Z,19.64
2022-08-03T02:55:27.870Z,19.65
2022-08-03T02:56:27.852Z,19.55
2022-08-03T02:57:27.842Z,19.53
2022-08-03T02:58:27.845Z,19.53
2022-08-03T02:59:27.824Z,19.46
2022-08-03T03:00:28.728Z,19.49
2022-08-03T03:01:27.861Z,19.47
2022-08-03T03:02:27.799Z,19.49
2022-08-03T03:03:27.782Z,19.42
2022-08-03T03:04:28.586Z,19.46
2022-08-03T03:05:55.484Z,19.46
2022-08-03T03:06:29.586Z,19.32
2022-08-03T03:07:28.857Z,19.34
2022-08-03T03:08:28.697Z,19.43
2022-08-03T03:09:39.952Z,19.40
2022-08-03T03:10:30.615Z,19.31
2022-08-03T03:11:31.586Z,19.32
2022-08-03T03:12:27.683Z,19.31
2022-08-03T03:13:27.674Z,19.30
2022-08-03T03:14:34.585Z,19.24
2022-08-03T03:15:28.584Z,19.32
2022-08-03T03:16:27.634Z,19.20
2022-08-03T03:17:31.606Z,19.23
2022-08-03T03:18:27.621Z,19.25
2022-08-03T03:19:27.615Z,19.25
2022-08-03T03:20:30.747Z,19.20
2022-08-03T03:21:27.592Z,19.21
2022-08-03T03:22:27.582Z,19.24
2022-08-03T03:23:27.578Z,19.17
2022-08-03T03:24:27.556Z,19.27
2022-08-03T03:25:27.553Z,19.25
2022-08-03T03:26:27.536Z,19.27
2022-08-03T03:27:28.095Z,19.27
2022-08-03T03:28:27.526Z,19.25
2022-08-03T03:29:27.505Z,19.17
2022-08-03T03:30:27.499Z,19.25
2022-08-03T03:31:27.481Z,19.21
2022-08-03T03:32:27.620Z,19.21
2022-08-03T03:33:28.600Z,19.16
2022-08-03T03:34:34.097Z,19.16
2022-08-03T03:35:42.090Z,19.15
2022-08-03T03:36:27.430Z,19.15
2022-08-03T03:37:27.434Z,19.20
2022-08-03T03:38:34.098Z,19.20
2022-08-03T03:39:27.408Z,19.13
2022-08-03T03:40:27.392Z,19.17
2022-08-03T03:41:28.095Z,19.13
2022-08-03T03:42:29.087Z,19.07
2022-08-03T03:43:27.371Z,19.07
2022-08-03T03:44:27.617Z,19.02
2022-08-03T03:45:27.347Z,19.10
2022-08-03T03:46:28.088Z,19.09
2022-08-03T03:47:32.564Z,18.99
2022-08-03T03:48:27.296Z,18.94
2022-08-03T03:49:27.359Z,18.94
2022-08-03T03:50:27.287Z,18.90
2022-08-03T03:51:27.276Z,18.93
2022-08-03T03:52:27.252Z,18.94
2022-08-03T03:53:28.101Z,18.93
2022-08-03T03:54:29.440Z,18.94
2022-08-03T03:55:28.109Z,18.94
2022-08-03T03:56:27.229Z,18.94
2022-08-03T03:57:27.208Z,18.96
2022-08-03T03:58:27.280Z,18.97
2022-08-03T03:59:27.175Z,18.93
2022-08-03T04:00:27.177Z,18.91
2022-08-03T04:01:27.146Z,18.90
2022-08-03T04:02:28.099Z,18.94
2022-08-03T04:03:27.132Z,18.93
2022-08-03T04:04:27.141Z,18.90
2022-08-03T04:05:27.104Z,18.94
2022-08-03T04:06:27.126Z,18.86
2022-08-03T04:07:41.603Z,18.89
2022-08-03T04:08:27.074Z,18.87
2022-08-03T04:09:27.066Z,18.79
2022-08-03T04:10:27.063Z,18.89
2022-08-03T04:11:30.364Z,18.90
2022-08-03T04:12:33.600Z,18.94
2022-08-03T04:13:27.019Z,18.87
2022-08-03T04:14:27.014Z,18.84
2022-08-03T04:15:26.996Z,18.84
2022-08-03T04:16:27.594Z,18.82
2022-08-03T04:17:26.989Z,18.84
2022-08-03T04:18:26.970Z,18.89
2022-08-03T04:19:27.118Z,18.89
2022-08-03T04:20:26.956Z,18.94
2022-08-03T04:21:26.927Z,18.90
2022-08-03T04:22:26.919Z,18.93
2022-08-03T04:23:26.903Z,18.94
2022-08-03T04:24:27.135Z,18.91
2022-08-03T04:25:26.882Z,18.97
2022-08-03T04:26:26.877Z,18.90
2022-08-03T04:27:26.881Z,18.89
2022-08-03T04:28:31.262Z,18.94
2022-08-03T04:29:26.849Z,18.99
2022-08-03T04:30:41.599Z,18.97
2022-08-03T04:31:26.823Z,18.96
2022-08-03T04:32:26.832Z,19.05
2022-08-03T04:33:29.429Z,19.01
2022-08-03T04:34:26.782Z,18.93
2022-08-03T04:35:26.791Z,18.94
2022-08-03T04:36:27.758Z,19.06
2022-08-03T04:37:26.743Z,19.06
2022-08-03T04:38:27.610Z,19.10
2022-08-03T04:39:26.735Z,19.17
2022-08-03T04:40:29.746Z,19.16
2022-08-03T04:41:27.714Z,19.17
2022-08-03T04:42:26.694Z,19.16
2022-08-03T04:43:26.680Z,19.21
2022-08-03T04:44:28.422Z,19.12
2022-08-03T04:45:26.662Z,19.15
2022-08-03T04:46:27.605Z,19.21
2022-08-03T04:47:26.653Z,19.28
2022-08-03T04:48:26.631Z,19.27
2022-08-03T04:49:26.796Z,19.25
2022-08-03T04:50:26.607Z,19.20
2022-08-03T04:51:26.602Z,19.28
2022-08-03T04:52:26.595Z,19.25
2022-08-03T04:53:26.654Z,19.25
2022-08-03T04:54:26.574Z,19.25
2022-08-03T04:55:29.102Z,19.27
2022-08-03T04:56:33.114Z,19.30
2022-08-03T04:57:26.527Z,19.34
2022-08-03T04:58:26.525Z,19.34
2022-08-03T04:59:26.623Z,19.42
2022-08-03T05:00:27.116Z,19.31
2022-08-03T05:01:26.507Z,19.39
2022-08-03T05:02:26.524Z,19.39
2022-08-03T05:03:27.098Z,19.39
2022-08-03T05:04:26.459Z,19.43
2022-08-03T05:05:26.454Z,19.42
2022-08-03T05:06:27.432Z,19.39
2022-08-03T05:07:26.418Z,19.43
2022-08-03T05:08:28.225Z,19.43
2022-08-03T05:09:45.991Z,19.47
2022-08-03T05:10:27.391Z,19.50
2022-08-03T05:11:26.377Z,19.55
2022-08-03T05:12:29.434Z,19.57
2022-08-03T05:13:27.378Z,19.58
2022-08-03T05:14:27.956Z,19.68
2022-08-03T05:15:26.341Z,19.62
2022-08-03T05:16:33.108Z,19.71
2022-08-03T05:17:27.342Z,19.75
2022-08-03T05:18:26.300Z,19.68
2022-08-03T05:19:36.105Z,19.76
2022-08-03T05:20:27.110Z,19.79
2022-08-03T05:21:26.304Z,19.80
2022-08-03T05:22:27.254Z,19.89
2022-08-03T05:23:27.116Z,19.87
2022-08-03T05:24:27.103Z,19.95
2022-08-03T05:25:27.550Z,19.97
2022-08-03T05:26:26.219Z,19.94
2022-08-03T05:27:26.242Z,19.97
2022-08-03T05:28:26.197Z,20.01
2022-08-03T05:29:26.639Z,20.08
2022-08-03T05:30:34.344Z,20.08
2022-08-03T05:31:27.109Z,20.13
2022-08-03T05:32:26.636Z,20.16
2022-08-03T05:33:29.116Z,20.10
2022-08-03T05:34:26.140Z,20.20
2022-08-03T05:35:57.546Z,20.22
2022-08-03T05:36:27.107Z,20.23
2022-08-03T05:37:26.122Z,20.26
2022-08-03T05:38:28.767Z,20.33
2022-08-03T05:39:27.617Z,20.33
2022-08-03T05:40:26.077Z,20.37
2022-08-03T05:41:36.662Z,20.42
2022-08-03T05:42:27.069Z,20.50
2022-08-03T05:43:26.041Z,20.50
2022-08-03T05:44:26.023Z,20.54
2022-08-03T05:45:28.356Z,20.60
2022-08-03T05:46:26.000Z,20.60
2022-08-03T05:47:26.149Z,20.68
2022-08-03T05:48:25.978Z,20.66
2022-08-03T05:49:26.249Z,20.72
2022-08-03T05:50:25.957Z,20.81
2022-08-03T05:51:25.948Z,20.72
2022-08-03T05:52:26.149Z,20.90
2022-08-03T05:53:25.940Z,20.82
2022-08-03T05:54:56.293Z,20.94
2022-08-03T05:55:26.897Z,20.93
2022-08-03T05:56:26.163Z,20.96
2022-08-03T05:57:25.873Z,20.90
2022-08-03T05:58:25.864Z,21.05
2022-08-03T05:59:38.280Z,21.09
2022-08-03T06:00:26.843Z,21.11
2022-08-03T06:01:26.159Z,21.12
2022-08-03T06:02:25.810Z,21.16
2022-08-03T06:03:25.811Z,21.19
2022-08-03T06:04:25.790Z,21.27
2022-08-03T06:05:25.772Z,21.22
2022-08-03T06:06:30.539Z,21.31
2022-08-03T06:07:26.785Z,21.36
2022-08-03T06:08:25.746Z,21.40
2022-08-03T06:09:31.856Z,21.49
2022-08-03T06:10:35.045Z,21.51
2022-08-03T06:11:27.624Z,21.55
2022-08-03T06:12:25.700Z,21.53
2022-08-03T06:13:25.735Z,21.59
2022-08-03T06:14:25.676Z,21.71
2022-08-03T06:15:25.675Z,21.75
2022-08-03T06:16:26.614Z,21.77
2022-08-03T06:17:25.679Z,21.77
2022-08-03T06:18:25.634Z,21.85
2022-08-03T06:19:25.629Z,21.83
2022-08-03T06:20:27.306Z,21.85
2022-08-03T06:21:25.602Z,21.90
2022-08-03T06:22:25.603Z,22.05
2022-08-03T06:23:54.141Z,22.04
2022-08-03T06:24:26.605Z,22.08
2022-08-03T06:25:25.565Z,22.19
2022-08-03T06:26:25.572Z,22.09
2022-08-03T06:27:36.578Z,22.15
2022-08-03T06:28:54.865Z,22.19
2022-08-03T06:29:26.540Z,22.24
2022-08-03T06:30:28.140Z,22.24
2022-08-03T06:31:25.513Z,22.23
2022-08-03T06:32:25.481Z,22.29
2022-08-03T06:33:25.482Z,22.24
2022-08-03T06:34:33.027Z,22.31
2022-08-03T06:35:26.654Z,22.26
2022-08-03T06:36:25.447Z,22.30
2022-08-03T06:37:25.428Z,22.30
2022-08-03T06:38:25.425Z,22.41
2022-08-03T06:39:25.660Z,22.45
2022-08-03T06:40:25.395Z,22.48
2022-08-03T06:41:25.381Z,22.54
2022-08-03T06:42:26.127Z,22.52
2022-08-03T06:43:25.364Z,22.59
2022-08-03T06:44:25.370Z,22.60
2022-08-03T06:45:25.347Z,22.60
2022-08-03T06:46:27.173Z,22.67
2022-08-03T06:47:38.215Z,22.60
2022-08-03T06:48:29.121Z,22.74
2022-08-03T06:49:25.437Z,22.72
2022-08-03T06:50:26.298Z,22.75
2022-08-03T06:52:03.302Z,22.78
2022-08-03T06:52:38.030Z,22.78
2022-08-03T06:53:29.124Z,22.85
2022-08-03T06:54:25.252Z,22.86
2022-08-03T06:55:25.250Z,22.91
2022-08-03T06:56:25.254Z,22.93
2022-08-03T06:57:26.147Z,23.00
2022-08-03T06:58:28.135Z,23.11
2022-08-03T07:00:08.895Z,23.19
2022-08-03T07:00:27.165Z,23.21
2022-08-03T07:01:25.214Z,23.31
2022-08-03T07:02:25.156Z,23.37
2022-08-03T07:03:25.144Z,23.32
2022-08-03T07:04:25.633Z,23.34
2022-08-03T07:05:25.154Z,23.44
2022-08-03T07:06:25.166Z,23.42
2022-08-03T07:07:25.114Z,23.38
2022-08-03T07:08:33.413Z,23.47
2022-08-03T07:09:28.638Z,23.52
2022-08-03T07:10:25.195Z,23.56
2022-08-03T07:11:25.075Z,23.53
2022-08-03T07:12:25.164Z,23.62
2022-08-03T07:13:25.037Z,23.67
2022-08-03T07:14:25.024Z,23.67
2022-08-03T07:15:54.014Z,23.72
2022-08-03T07:16:26.632Z,23.75
2022-08-03T07:17:25.005Z,23.78
2022-08-03T07:18:29.167Z,23.78
2022-08-03T07:19:25.978Z,23.90
2022-08-03T07:20:24.946Z,23.96
2022-08-03T07:21:24.949Z,23.89
2022-08-03T07:22:25.164Z,23.89
2022-08-03T07:23:27.632Z,23.93
2022-08-03T07:24:39.633Z,23.99
2022-08-03T07:25:24.908Z,23.99
2022-08-03T07:26:25.640Z,24.05
2022-08-03T07:27:25.171Z,24.08
2022-08-03T07:28:25.637Z,24.15
2022-08-03T07:29:24.860Z,24.24
2022-08-03T07:30:24.834Z,24.12
2022-08-03T07:31:24.836Z,24.24
2022-08-03T07:32:25.165Z,24.26
2022-08-03T07:33:24.827Z,24.23
2022-08-03T07:34:24.799Z,24.30
2022-08-03T07:35:25.819Z,24.29
2022-08-03T07:36:24.774Z,24.29
2022-08-03T07:37:24.772Z,24.42
2022-08-03T07:38:24.784Z,24.30
2022-08-03T07:39:25.641Z,24.36
2022-08-03T07:40:25.105Z,24.41
2022-08-03T07:41:25.723Z,24.45
2022-08-03T07:42:24.724Z,24.44
2022-08-03T07:43:24.707Z,24.48
2022-08-03T07:44:25.170Z,24.67
2022-08-03T07:45:27.644Z,24.61
2022-08-03T07:46:24.669Z,24.66
2022-08-03T07:47:24.662Z,24.79
2022-08-03T07:48:24.687Z,24.63
2022-08-03T07:49:26.843Z,24.79
2022-08-03T07:50:25.144Z,24.82
2022-08-03T07:51:24.622Z,24.71
2022-08-03T07:52:25.151Z,24.87
2022-08-03T07:53:27.140Z,24.92
2022-08-03T07:54:25.153Z,24.93
2022-08-03T07:55:24.622Z,24.98
2022-08-03T07:56:25.174Z,25.08
2022-08-03T07:57:24.559Z,25.01
2022-08-03T07:58:40.175Z,25.02
2022-08-03T07:59:24.530Z,25.07
2022-08-03T08:00:24.551Z,25.09
2022-08-03T08:01:24.614Z,25.05
2022-08-03T08:02:24.713Z,25.05
2022-08-03T08:03:24.485Z,25.11
2022-08-03T08:04:25.144Z,25.04
2022-08-03T08:05:25.149Z,25.09
2022-08-03T08:06:24.454Z,25.08
2022-08-03T08:07:27.162Z,25.07
2022-08-03T08:08:24.671Z,25.12
2022-08-03T08:09:24.434Z,25.09
2022-08-03T08:10:24.412Z,25.11
2022-08-03T08:11:24.394Z,25.11
2022-08-03T08:12:25.155Z,25.07
2022-08-03T08:13:24.678Z,25.11
2022-08-03T08:14:24.368Z,25.22
2022-08-03T08:15:27.142Z,25.31
2022-08-03T08:16:24.346Z,25.29
2022-08-03T08:17:25.151Z,25.35
2022-08-03T08:18:24.322Z,25.41
2022-08-03T08:19:24.343Z,25.51
2022-08-03T08:20:27.842Z,25.53
2022-08-03T08:21:24.282Z,25.59
2022-08-03T08:22:30.628Z,25.54
2022-08-03T08:23:42.463Z,25.60
2022-08-03T08:24:25.265Z,25.56
2022-08-03T08:25:24.245Z,25.61
2022-08-03T08:26:24.224Z,25.48
2022-08-03T08:27:24.226Z,25.59
2022-08-03T08:28:32.235Z,25.61
2022-08-03T08:29:25.232Z,25.61
2022-08-03T08:30:24.195Z,25.67
2022-08-03T08:31:25.153Z,25.69
2022-08-03T08:32:24.164Z,25.69
2022-08-03T08:33:25.736Z,25.78
2022-08-03T08:34:24.179Z,25.93
2022-08-03T08:35:24.148Z,26.01
2022-08-03T08:36:24.112Z,26.01
2022-08-03T08:37:24.114Z,26.08
2022-08-03T08:38:38.656Z,26.06
2022-08-03T08:39:24.082Z,26.13
2022-08-03T08:40:24.098Z,26.16
2022-08-03T08:41:24.182Z,26.21
2022-08-03T08:42:25.046Z,26.34
2022-08-03T08:43:24.048Z,26.28
2022-08-03T08:44:24.047Z,26.36
2022-08-03T08:45:26.659Z,26.28
2022-08-03T08:46:26.666Z,26.31
2022-08-03T08:47:23.997Z,26.31
2022-08-03T08:48:23.993Z,26.20
2022-08-03T08:49:24.028Z,26.28
2022-08-03T08:50:27.782Z,26.29
2022-08-03T08:51:24.978Z,26.12
2022-08-03T08:52:31.904Z,26.20
2022-08-03T08:53:27.324Z,26.34
2022-08-03T08:54:23.982Z,26.36
2022-08-03T08:55:23.913Z,26.23
2022-08-03T08:56:23.914Z,26.42
2022-08-03T08:57:41.916Z,26.57
2022-08-03T08:58:24.873Z,26.56
2022-08-03T08:59:23.866Z,26.68
2022-08-03T09:00:23.852Z,26.71
2022-08-03T09:01:24.228Z,26.59
2022-08-03T09:02:23.848Z,26.73
2022-08-03T09:03:29.884Z,26.69
2022-08-03T09:04:24.817Z,26.71
2022-08-03T09:05:41.417Z,26.72
2022-08-03T09:06:39.653Z,26.75
2022-08-03T09:07:23.800Z,26.81
2022-08-03T09:08:23.769Z,26.84
2022-08-03T09:09:28.515Z,26.87
2022-08-03T09:10:24.742Z,26.90
2022-08-03T09:11:51.413Z,26.93
2022-08-03T09:12:42.198Z,26.96
2022-08-03T09:13:24.705Z,27.08
2022-08-03T09:14:35.290Z,27.08
2022-08-03T09:15:31.662Z,27.05
2022-08-03T09:16:23.681Z,26.84
2022-08-03T09:17:23.698Z,26.93
2022-08-03T09:18:23.668Z,27.01
2022-08-03T09:19:24.647Z,27.05
2022-08-03T09:20:23.642Z,27.11
2022-08-03T09:21:31.819Z,27.25
2022-08-03T09:22:24.644Z,27.20
2022-08-03T09:24:00.578Z,27.23
2022-08-03T09:24:40.790Z,27.24
2022-08-03T09:25:25.235Z,27.30
2022-08-03T09:26:23.602Z,27.23
2022-08-03T09:27:23.563Z,27.45
2022-08-03T09:28:52.833Z,27.43
2022-08-03T09:29:24.708Z,27.50
2022-08-03T09:30:34.715Z,27.61
2022-08-03T09:31:27.160Z,27.65
2022-08-03T09:32:23.504Z,27.76
2022-08-03T09:33:26.164Z,27.77
2022-08-03T09:34:24.499Z,27.88
2022-08-03T09:35:33.048Z,27.83
2022-08-03T09:36:25.159Z,27.84
2022-08-03T09:38:08.594Z,27.86
2022-08-03T09:38:27.173Z,27.95
2022-08-03T09:39:40.424Z,27.86
2022-08-03T09:40:24.420Z,27.90
2022-08-03T09:41:30.176Z,27.87
2022-08-03T09:42:23.650Z,27.87
2022-08-03T09:43:23.393Z,28.01
2022-08-03T09:44:24.886Z,27.99
2022-08-03T09:45:44.708Z,28.01
2022-08-03T09:46:23.366Z,28.08
2022-08-03T09:47:28.007Z,28.24
2022-08-03T09:48:23.346Z,28.40
2022-08-03T09:49:23.384Z,28.52
2022-08-03T09:50:23.335Z,28.51
2022-08-03T09:52:28.834Z,28.60
2022-08-03T09:52:32.330Z,28.62
2022-08-03T09:53:24.278Z,28.67
2022-08-03T09:54:26.179Z,28.70
2022-08-03T09:55:23.515Z,28.76
2022-08-03T09:56:35.567Z,28.77
2022-08-03T09:57:24.228Z,28.62
2022-08-03T09:58:26.175Z,28.65
2022-08-03T09:59:23.213Z,28.76
2022-08-03T10:00:23.221Z,28.94
2022-08-03T10:01:26.208Z,29.12
2022-08-03T10:02:23.196Z,29.18
2022-08-03T10:03:23.173Z,29.35
2022-08-03T10:04:23.671Z,29.23
2022-08-03T10:05:23.679Z,29.25
2022-08-03T10:06:23.177Z,29.18
2022-08-03T10:07:26.681Z,29.12
2022-08-03T10:08:23.134Z,29.14
2022-08-03T10:09:44.108Z,29.15
2022-08-03T10:10:30.371Z,29.20
2022-08-03T10:11:24.198Z,29.23
2022-08-03T10:12:23.076Z,29.20
2022-08-03T10:13:23.679Z,29.39
2022-08-03T10:14:23.058Z,29.26
2022-08-03T10:16:21.661Z,29.35
2022-08-03T10:16:25.523Z,29.45
2022-08-03T10:17:23.021Z,29.29
2022-08-03T10:18:23.025Z,29.42
2022-08-03T10:19:22.988Z,29.60
2022-08-03T10:20:23.670Z,29.51
2022-08-03T10:21:22.975Z,29.51
2022-08-03T10:22:23.220Z,29.58
2022-08-03T10:23:23.687Z,29.41
2022-08-03T10:24:22.971Z,29.49
2022-08-03T10:25:22.942Z,29.58
2022-08-03T10:26:23.918Z,29.58
2022-08-03T10:27:22.894Z,29.74
2022-08-03T10:28:22.912Z,29.85
2022-08-03T10:29:23.693Z,29.82
2022-08-03T10:30:26.139Z,29.94
2022-08-03T10:31:22.862Z,30.01
2022-08-03T10:32:22.849Z,30.08
2022-08-03T10:33:49.737Z,30.13
2022-08-03T10:34:23.858Z,30.13
2022-08-03T10:35:22.840Z,30.15
2022-08-03T10:36:22.812Z,30.10
2022-08-03T10:37:22.803Z,30.00
2022-08-03T10:38:22.798Z,30.04
2022-08-03T10:39:22.756Z,29.74
2022-08-03T10:40:33.479Z,29.66
2022-08-03T10:41:23.752Z,29.67
2022-08-03T10:42:22.763Z,29.76
2022-08-03T10:43:23.679Z,29.85
2022-08-03T10:44:23.792Z,29.86
2022-08-03T10:45:22.714Z,30.07
2022-08-03T10:46:23.727Z,30.13
2022-08-03T10:47:23.699Z,30.10
2022-08-03T10:48:22.690Z,29.97
2022-08-03T10:49:33.793Z,29.97
2022-08-03T10:50:23.659Z,30.23
2022-08-03T10:51:22.690Z,30.28
2022-08-03T10:52:32.788Z,30.25
2022-08-03T10:53:30.182Z,30.25
2022-08-03T10:54:22.622Z,30.15
2022-08-03T10:55:22.749Z,30.06
2022-08-03T10:56:46.672Z,29.82
2022-08-03T10:57:23.735Z,29.95
2022-08-03T10:58:30.565Z,29.94
2022-08-03T10:59:27.708Z,29.94
2022-08-03T11:00:22.683Z,29.97
2022-08-03T11:01:22.740Z,30.01
2022-08-03T11:02:22.558Z,30.11
2022-08-03T11:03:22.548Z,30.10
2022-08-03T11:04:23.196Z,30.30
2022-08-03T11:05:25.199Z,30.51
2022-08-03T11:06:22.489Z,30.73
2022-08-03T11:07:23.169Z,30.81
2022-08-03T11:08:23.543Z,30.83
2022-08-03T11:09:23.183Z,30.78
2022-08-03T11:10:22.465Z,30.57
2022-08-03T11:11:22.434Z,30.49
2022-08-03T11:12:28.955Z,30.42
2022-08-03T11:13:23.425Z,30.56
2022-08-03T11:14:22.479Z,30.45
2022-08-03T11:15:23.447Z,30.56
2022-08-03T11:16:22.528Z,30.57
2022-08-03T11:17:22.377Z,30.56
2022-08-03T11:18:22.725Z,30.64
2022-08-03T11:19:22.372Z,30.70
2022-08-03T11:20:25.194Z,30.82
2022-08-03T11:21:22.335Z,30.96
2022-08-03T11:22:22.317Z,31.00
2022-08-03T11:24:02.094Z,31.05
2022-08-03T11:24:23.370Z,31.18
2022-08-03T11:25:53.989Z,31.25
2022-08-03T11:26:24.193Z,31.13
2022-08-03T11:27:22.735Z,31.09
2022-08-03T11:28:22.733Z,30.96
2022-08-03T11:29:22.235Z,30.98
2022-08-03T11:30:22.244Z,30.72
2022-08-03T11:31:47.939Z,30.57
2022-08-03T11:32:23.211Z,30.45
2022-08-03T11:33:22.224Z,30.56
2022-08-03T11:34:22.192Z,30.76
2022-08-03T11:35:23.241Z,30.93
2022-08-03T11:36:32.519Z,30.97
2022-08-03T11:37:24.095Z,31.03
2022-08-03T11:38:23.731Z,31.15
2022-08-03T11:39:22.234Z,31.28
2022-08-03T11:40:36.701Z,31.46
2022-08-03T11:41:22.225Z,31.30
2022-08-03T11:42:22.114Z,31.38
2022-08-03T11:43:22.095Z,31.34
2022-08-03T11:44:24.704Z,31.49
2022-08-03T11:45:22.226Z,31.60
2022-08-03T11:46:28.664Z,31.69
2022-08-03T11:47:23.248Z,31.47
2022-08-03T11:48:22.719Z,31.22
2022-08-03T11:49:22.797Z,31.41
2022-08-03T11:50:22.250Z,31.45
2022-08-03T11:51:22.236Z,31.59
2022-08-03T11:52:27.167Z,31.69
2022-08-03T11:53:22.988Z,31.84
2022-08-03T11:54:21.979Z,31.78
2022-08-03T11:55:29.005Z,31.85
2022-08-03T11:56:23.251Z,32.07
2022-08-03T11:57:21.948Z,32.03
2022-08-03T11:59:01.582Z,31.65
2022-08-03T11:59:23.013Z,31.76
2022-08-03T12:00:21.918Z,31.91
2022-08-03T12:01:23.213Z,32.03
2022-08-03T12:02:22.949Z,31.97
2022-08-03T12:03:22.776Z,32.12
2022-08-03T12:04:22.243Z,32.02
2022-08-03T12:05:28.704Z,31.90
2022-08-03T12:06:36.718Z,31.76
2022-08-03T12:07:25.885Z,31.57
2022-08-03T12:08:22.858Z,31.42
2022-08-03T12:09:21.824Z,31.42
2022-08-03T12:10:22.703Z,31.27
2022-08-03T12:11:21.829Z,31.23
2022-08-03T12:12:21.791Z,30.88
2022-08-03T12:14:35.820Z,30.72
2022-08-03T12:14:48.981Z,30.76
2022-08-03T12:15:22.761Z,30.86
2022-08-03T12:16:21.750Z,31.19
2022-08-03T12:17:24.711Z,31.38
2022-08-03T12:18:22.243Z,31.49
2022-08-03T12:19:21.739Z,31.56
2022-08-03T12:20:34.899Z,31.59
2022-08-03T12:21:22.694Z,31.62
2022-08-03T12:22:21.686Z,31.87
2022-08-03T12:23:21.677Z,32.21
2022-08-03T12:24:21.737Z,32.21
2022-08-03T12:25:38.632Z,32.32
2022-08-03T12:26:23.220Z,32.44
2022-08-03T12:27:22.214Z,32.34
2022-08-03T12:28:37.459Z,32.19
2022-08-03T12:29:22.757Z,32.32
2022-08-03T12:30:22.207Z,32.31
2022-08-03T12:31:24.214Z,32.14
2022-08-03T12:32:24.440Z,32.09
2022-08-03T12:33:22.220Z,32.09
2022-08-03T12:34:21.571Z,32.10
2022-08-03T12:35:36.222Z,32.06
2022-08-03T12:36:22.219Z,31.94
2022-08-03T12:37:22.838Z,32.13
2022-08-03T12:38:24.215Z,32.07
2022-08-03T12:39:21.750Z,32.06
2022-08-03T12:40:25.162Z,31.88
2022-08-03T12:41:22.501Z,31.98
2022-08-03T12:42:21.472Z,31.85
2022-08-03T12:43:21.459Z,31.97
2022-08-03T12:44:24.223Z,32.29
2022-08-03T12:45:21.473Z,32.53
2022-08-03T12:46:21.426Z,32.72
2022-08-03T12:47:25.236Z,32.71
2022-08-03T12:48:21.416Z,32.99
2022-08-03T12:49:24.322Z,32.99
2022-08-03T12:50:21.746Z,32.95
2022-08-03T12:51:21.375Z,32.71
2022-08-03T12:52:22.225Z,32.43